Aviation Digital Data Service (ADDS)

Output produced by METARs form (2139 UTC 17 April 2014)
found at http://aviationweather.gov/adds/metars/
 
KLFT 171720Z 1718/1818 06008KT P6SM VCSH SCT025 BKN050 
     TEMPO 1718/1722 3SM SHRA OVC025 
     FM180100 05005KT P6SM BKN050 
     TEMPO 1810/1814 OVC025 
     FM181400 01010KT P6SM OVC025